Airfield :







YOU CAN JOIN US ON...

 
LOGIN :

Register | Disclaimer

   EN    FR    IT 

 









Legend :    VFR   Marginal VFR   IFR   Intensive IFR   Very Intensive IFR
Visi :
Ceiling :
>= 8 km
>= 3000ft
5 to 8 km
1000 to 3000 ft
1500m to 5 km
500 to 1000 ft
800 to 1500m
200 to 500 ft
< 800m
< 200 ft
Symbols :   Thunderstorms  Fog  Heavy snow  Heavy precipitations  Wind > 20 kt






- Airport Elevation : 71 ft
- IATA code : YBC


CYBC - Baie Comeau

CURRENT METAR :
  • 181300Z AUTO 33010G21KT 300V360 9SM BKN030 BKN034 OVC100 06/02 A2954 RMK SLP007

EXPIRED METARs :
  • 181200Z AUTO 33011G24KT 300V010 9SM FEW024 BKN071 OVC087 06/02 A2949 RMK SLP991
  • 181137Z AUTO 32008G16KT 290V360 9SM SCT024 OVC060 05/03 A2948 RMK SLP986
  • 181124Z AUTO 31012G18KT 9SM -RA OVC060 05/03 A2947 RMK SLP984
  • 181100Z AUTO 33011G22KT 300V360 9SM OVC066 05/03 A2946 RMK SLP979

TAF AMD TAF CYBC
Valid from the 18 at 09:00 until the 18 at 20:00 UTC


180907Z 1809/1820 30012G22KT P6SM -RA BKN030
TEMPO 1809/1812 5SM -SHRA BR BKN020
FM181200 32015G25KT P6SM BKN030
BECMG 1812/1814 SCT030 BKN160
FM181800 31015G25KT P6SM FEW050 RMK FCST BASED ON AUTO OBS. NXT FCST BY 181400Z
CZUL FIR / North America



MET'MAP, your aeronautical weather chart ! - Copyright ORBIFLY December 2007 - Disclaimer

ORBIFLY MET'MAP TEAM :

Programming & Development : Alexandra Zaïnal
Original concept : Baudouin d'Aumeries
Technical & hardware support : Manuel Goepfert
Assistance : Marc-Olivier Méhu

Contact : metmap@orbifly.com




SOURCES & CREDITS :

   NOAA